createdAt,value
2018-07-15T00:01:59.724Z,3.20
2018-07-15T00:04:28.277Z,3.80
2018-07-15T00:06:56.733Z,3.57
2018-07-15T00:09:25.289Z,3.47
2018-07-15T00:11:53.736Z,3.30
2018-07-15T00:14:22.274Z,4.13
2018-07-15T00:16:50.782Z,3.33
2018-07-15T00:19:19.423Z,3.70
2018-07-15T00:21:47.952Z,3.80
2018-07-15T00:24:16.473Z,3.57
2018-07-15T00:26:44.920Z,3.53
2018-07-15T00:29:13.406Z,3.67
2018-07-15T00:31:41.864Z,3.97
2018-07-15T00:34:10.349Z,3.60
2018-07-15T00:36:38.788Z,4.00
2018-07-15T00:39:08.060Z,3.97
2018-07-15T00:41:36.478Z,4.27
2018-07-15T00:44:05.488Z,3.87
2018-07-15T00:46:34.014Z,4.07
2018-07-15T00:49:02.512Z,4.13
2018-07-15T00:51:30.979Z,4.30
2018-07-15T00:53:59.513Z,4.50
2018-07-15T00:56:27.954Z,3.90
2018-07-15T00:58:56.614Z,4.20
2018-07-15T01:01:25.077Z,4.53
2018-07-15T01:03:53.575Z,4.60
2018-07-15T01:06:22.356Z,4.40
2018-07-15T01:08:50.950Z,5.00
2018-07-15T01:11:19.494Z,4.40
2018-07-15T01:13:48.060Z,4.17
2018-07-15T01:16:16.490Z,4.60
2018-07-15T01:18:44.970Z,4.77
2018-07-15T01:21:13.413Z,4.40
2018-07-15T01:23:41.999Z,4.40
2018-07-15T01:26:10.546Z,5.10
2018-07-15T01:28:39.017Z,4.50
2018-07-15T01:31:07.485Z,4.50
2018-07-15T01:33:35.896Z,4.83
2018-07-15T01:36:04.809Z,4.07
2018-07-15T01:38:33.218Z,5.60
2018-07-15T01:41:01.919Z,4.63
2018-07-15T01:43:30.421Z,4.60
2018-07-15T01:45:59.003Z,5.90
2018-07-15T01:48:27.585Z,5.17
2018-07-15T01:50:56.028Z,6.07
2018-07-15T01:53:24.448Z,5.97
2018-07-15T01:55:53.099Z,5.07
2018-07-15T01:58:21.521Z,4.93
2018-07-15T02:00:50.197Z,4.80
2018-07-15T02:03:18.665Z,5.40
2018-07-15T02:05:47.178Z,4.53
2018-07-15T02:08:15.719Z,6.17
2018-07-15T02:10:44.213Z,5.53
2018-07-15T02:13:12.698Z,5.40
2018-07-15T02:15:41.186Z,5.10
2018-07-15T02:18:09.752Z,5.07
2018-07-15T02:20:38.208Z,4.90
2018-07-15T02:23:06.851Z,5.57
2018-07-15T02:25:35.135Z,5.67
2018-07-15T02:28:03.596Z,5.23
2018-07-15T02:30:32.056Z,5.47
2018-07-15T02:33:00.560Z,5.00
2018-07-15T02:35:29.402Z,5.33
2018-07-15T02:37:57.958Z,5.50
2018-07-15T02:40:26.379Z,6.37
2018-07-15T02:42:54.844Z,5.00
2018-07-15T02:45:23.395Z,5.67
2018-07-15T02:47:51.849Z,5.43
2018-07-15T02:50:20.426Z,5.53
2018-07-15T02:52:48.861Z,6.20
2018-07-15T02:55:17.433Z,5.63
2018-07-15T02:57:46.032Z,5.73
2018-07-15T03:00:14.569Z,6.23
2018-07-15T03:02:43.084Z,5.57
2018-07-15T03:05:11.681Z,5.53
2018-07-15T03:07:40.157Z,6.43
2018-07-15T03:10:08.709Z,5.97
2018-07-15T03:12:37.221Z,6.03
2018-07-15T03:15:05.815Z,5.90
2018-07-15T03:17:34.277Z,6.53
2018-07-15T03:20:03.296Z,5.73
2018-07-15T03:22:31.733Z,6.70
2018-07-15T03:25:00.213Z,6.10
2018-07-15T03:27:28.791Z,6.57
2018-07-15T03:29:57.444Z,6.13
2018-07-15T03:32:25.932Z,6.37
2018-07-15T03:34:54.386Z,7.17
2018-07-15T03:37:22.956Z,6.40
2018-07-15T03:39:51.460Z,6.80
2018-07-15T03:42:19.983Z,6.53
2018-07-15T03:44:48.600Z,6.13
2018-07-15T03:47:17.393Z,6.57
2018-07-15T03:49:46.003Z,6.23
2018-07-15T03:52:14.579Z,6.80
2018-07-15T03:54:43.023Z,6.53
2018-07-15T03:57:11.553Z,6.47
2018-07-15T03:59:40.079Z,6.17
2018-07-15T04:02:08.728Z,6.73
2018-07-15T04:04:37.173Z,6.07
2018-07-15T04:07:05.917Z,7.33
2018-07-15T04:09:34.685Z,6.70
2018-07-15T04:12:03.256Z,6.33
2018-07-15T04:14:31.691Z,6.23
2018-07-15T04:17:00.532Z,6.10
2018-07-15T04:19:29.067Z,6.10
2018-07-15T04:21:57.765Z,6.03
2018-07-15T04:24:26.269Z,7.00
2018-07-15T04:26:54.839Z,5.37
2018-07-15T04:29:23.329Z,5.07
2018-07-15T04:31:51.825Z,5.63
2018-07-15T04:34:20.785Z,5.37
2018-07-15T04:36:49.696Z,5.43
2018-07-15T04:39:18.198Z,6.43
2018-07-15T04:41:46.694Z,5.37
2018-07-15T04:44:15.158Z,5.00
2018-07-15T04:46:43.638Z,4.73
2018-07-15T04:49:12.128Z,5.60
2018-07-15T04:51:40.718Z,4.93
2018-07-15T04:54:09.142Z,5.93
2018-07-15T04:56:37.608Z,5.30
2018-07-15T04:59:07.970Z,4.60
2018-07-15T05:01:40.794Z,4.93
2018-07-15T05:04:09.304Z,4.97
2018-07-15T05:06:37.925Z,5.17
2018-07-15T05:09:07.012Z,4.57
2018-07-15T05:11:35.867Z,4.87
2018-07-15T05:14:04.497Z,4.70
2018-07-15T05:16:32.948Z,5.23
2018-07-15T05:19:01.674Z,5.10
2018-07-15T05:21:30.268Z,5.17
2018-07-15T05:23:58.743Z,5.57
2018-07-15T05:26:27.550Z,4.70
2018-07-15T05:28:56.076Z,5.30
2018-07-15T05:31:24.674Z,5.37
2018-07-15T05:33:53.160Z,5.93
2018-07-15T05:36:21.959Z,5.30
2018-07-15T05:38:50.386Z,5.30
2018-07-15T05:41:19.520Z,5.80
2018-07-15T05:43:48.089Z,5.50
2018-07-15T05:46:16.598Z,5.80
2018-07-15T05:48:45.373Z,5.20
2018-07-15T05:51:13.956Z,5.13
2018-07-15T05:53:42.424Z,5.17
2018-07-15T05:56:10.947Z,4.92
2018-07-15T05:58:39.618Z,4.90
2018-07-15T06:01:08.417Z,5.58
2018-07-15T06:03:36.954Z,5.65
2018-07-15T06:06:05.741Z,5.80
2018-07-15T06:08:34.224Z,6.05
2018-07-15T06:11:02.996Z,5.37
2018-07-15T06:13:31.665Z,6.12
2018-07-15T06:16:00.185Z,6.17
2018-07-15T06:18:28.686Z,5.42
2018-07-15T06:20:57.630Z,5.72
2018-07-15T06:23:26.249Z,5.40
2018-07-15T06:25:54.913Z,5.10
2018-07-15T06:28:23.626Z,5.55
2018-07-15T06:30:52.163Z,5.80
2018-07-15T06:33:20.837Z,5.83
2018-07-15T06:35:49.387Z,5.58
2018-07-15T06:38:17.869Z,5.20
2018-07-15T06:40:47.158Z,5.42
2018-07-15T06:43:15.750Z,6.00
2018-07-15T06:45:44.152Z,6.75
2018-07-15T06:48:13.006Z,15.80
2018-07-15T06:50:41.468Z,6.60
2018-07-15T06:53:10.195Z,5.50
2018-07-15T06:55:38.873Z,5.42
2018-07-15T06:58:07.353Z,5.33
2018-07-15T07:00:36.121Z,4.92
2018-07-15T07:03:04.626Z,5.00
2018-07-15T07:05:33.216Z,5.12
2018-07-15T07:08:01.963Z,4.60
2018-07-15T07:10:30.499Z,4.40
2018-07-15T07:12:59.151Z,4.67
2018-07-15T07:15:27.709Z,4.50
2018-07-15T07:17:55.884Z,4.80
2018-07-15T07:20:24.464Z,4.55
2018-07-15T07:22:53.016Z,4.62
2018-07-15T07:25:21.546Z,4.45
2018-07-15T07:27:50.002Z,4.35
2018-07-15T07:30:18.618Z,4.50
2018-07-15T07:32:47.165Z,4.33
2018-07-15T07:35:15.816Z,4.42
2018-07-15T07:37:44.750Z,3.80
2018-07-15T07:40:13.283Z,3.90
2018-07-15T07:42:42.031Z,4.65
2018-07-15T07:45:10.561Z,3.67
2018-07-15T07:47:39.159Z,4.78
2018-07-15T07:50:07.683Z,3.42
2018-07-15T07:52:36.169Z,3.37
2018-07-15T07:55:04.958Z,3.67
2018-07-15T07:57:33.496Z,2.67
2018-07-15T08:00:01.990Z,3.05
2018-07-15T08:02:30.696Z,2.45
2018-07-15T08:04:59.450Z,2.62
2018-07-15T08:07:28.081Z,2.92
2018-07-15T08:09:56.621Z,2.00
2018-07-15T08:12:25.126Z,2.20
2018-07-15T08:14:53.586Z,1.37
2018-07-15T08:17:22.092Z,1.50
2018-07-15T08:19:57.059Z,1.55
2018-07-15T08:22:25.552Z,1.70
2018-07-15T08:24:54.144Z,1.70
2018-07-15T08:27:22.372Z,1.77
2018-07-15T08:30:02.040Z,1.70
2018-07-15T08:32:30.515Z,2.10
2018-07-15T08:34:59.114Z,1.60
2018-07-15T08:37:27.765Z,1.57
2018-07-15T08:39:56.452Z,1.65
2018-07-15T08:42:24.931Z,1.80
2018-07-15T08:44:53.557Z,1.92
2018-07-15T08:47:22.304Z,1.92
2018-07-15T08:49:50.815Z,1.92
2018-07-15T08:52:19.377Z,2.10
2018-07-15T08:54:48.069Z,1.72
2018-07-15T08:57:16.746Z,1.98
2018-07-15T08:59:45.284Z,2.00
2018-07-15T09:02:13.916Z,2.22
2018-07-15T09:04:42.181Z,2.00
2018-07-15T09:07:10.664Z,2.58
2018-07-15T09:09:39.254Z,1.90
2018-07-15T09:12:07.681Z,2.58
2018-07-15T09:14:36.172Z,2.45
2018-07-15T09:17:04.761Z,2.40
2018-07-15T09:19:33.212Z,2.22
2018-07-15T09:22:01.936Z,2.45
2018-07-15T09:24:30.478Z,2.25
2018-07-15T09:26:58.983Z,2.55
2018-07-15T09:29:28.005Z,2.22
2018-07-15T09:31:56.485Z,2.50
2018-07-15T09:34:24.878Z,2.00
2018-07-15T09:36:53.624Z,2.08
2018-07-15T09:39:22.183Z,1.50
2018-07-15T09:41:50.720Z,1.32
2018-07-15T09:44:19.284Z,1.30
2018-07-15T09:46:48.220Z,1.25
2018-07-15T09:49:16.627Z,1.27
2018-07-15T09:51:45.167Z,1.30
2018-07-15T09:54:13.813Z,1.17
2018-07-15T09:56:42.313Z,1.40
2018-07-15T09:59:10.825Z,1.98
2018-07-15T10:01:39.394Z,1.37
2018-07-15T10:04:08.108Z,1.52
2018-07-15T10:06:36.665Z,1.45
2018-07-15T10:09:05.737Z,1.72
2018-07-15T10:11:34.250Z,1.40
2018-07-15T10:14:02.755Z,1.40
2018-07-15T10:16:31.552Z,1.27
2018-07-15T10:19:00.266Z,1.60
2018-07-15T10:21:28.714Z,1.67
2018-07-15T10:23:57.296Z,1.95
2018-07-15T10:26:25.768Z,1.85
2018-07-15T10:28:54.301Z,2.15
2018-07-15T10:31:23.397Z,2.00
2018-07-15T10:33:52.004Z,2.02
2018-07-15T10:36:20.521Z,2.20
2018-07-15T10:38:49.142Z,2.22
2018-07-15T10:41:17.906Z,1.50
2018-07-15T10:43:46.484Z,1.90
2018-07-15T10:46:15.148Z,1.92
2018-07-15T10:48:43.904Z,2.12
2018-07-15T10:51:12.569Z,2.35
2018-07-15T10:53:41.094Z,2.00
2018-07-15T10:56:09.616Z,1.98
2018-07-15T10:58:38.238Z,1.95
2018-07-15T11:01:06.929Z,1.62
2018-07-15T11:03:35.533Z,1.80
2018-07-15T11:06:04.057Z,2.15
2018-07-15T11:08:32.771Z,1.85
2018-07-15T11:11:01.443Z,2.10
2018-07-15T11:13:30.015Z,1.87
2018-07-15T11:15:58.548Z,1.80
2018-07-15T11:18:27.112Z,1.80
2018-07-15T11:20:55.589Z,1.73
2018-07-15T11:23:24.174Z,2.33
2018-07-15T11:25:52.700Z,1.80
2018-07-15T11:28:21.202Z,2.13
2018-07-15T11:30:49.700Z,1.67
2018-07-15T11:33:18.357Z,1.70
2018-07-15T11:35:46.921Z,1.67
2018-07-15T11:38:15.851Z,1.90
2018-07-15T11:40:44.421Z,1.93
2018-07-15T11:43:13.111Z,1.83
2018-07-15T11:45:41.617Z,1.67
2018-07-15T11:48:10.378Z,1.83
2018-07-15T11:50:38.846Z,1.90
2018-07-15T11:53:07.656Z,1.67
2018-07-15T11:55:36.216Z,1.80
2018-07-15T11:58:04.887Z,1.93
2018-07-15T12:00:33.408Z,1.50
2018-07-15T12:03:02.046Z,1.83
2018-07-15T12:05:30.717Z,1.90
2018-07-15T12:07:58.918Z,1.90
2018-07-15T12:10:27.454Z,1.70
2018-07-15T12:12:56.018Z,1.97
2018-07-15T12:15:24.528Z,1.50
2018-07-15T12:17:53.110Z,1.50
2018-07-15T12:20:21.665Z,1.70
2018-07-15T12:22:50.134Z,1.80
2018-07-15T12:25:18.917Z,1.77
2018-07-15T12:27:47.409Z,2.03
2018-07-15T12:30:15.993Z,1.70
2018-07-15T12:32:44.655Z,2.10
2018-07-15T12:35:13.172Z,1.57
2018-07-15T12:37:42.147Z,1.73
2018-07-15T12:40:10.590Z,1.80
2018-07-15T12:42:39.617Z,1.70
2018-07-15T12:45:08.116Z,1.80
2018-07-15T12:47:36.881Z,1.73
2018-07-15T12:50:08.270Z,1.60
2018-07-15T12:52:36.598Z,1.50
2018-07-15T12:55:05.614Z,1.53
2018-07-15T12:57:34.128Z,1.70
2018-07-15T13:00:02.688Z,1.60
2018-07-15T13:02:31.185Z,1.80
2018-07-15T13:04:59.915Z,1.27
2018-07-15T13:07:28.388Z,1.47
2018-07-15T13:09:57.031Z,1.40
2018-07-15T13:12:25.502Z,1.43
2018-07-15T13:14:54.125Z,1.60
2018-07-15T13:17:22.588Z,1.40
2018-07-15T13:19:51.121Z,1.50
2018-07-15T13:22:19.703Z,1.50
2018-07-15T13:24:48.224Z,2.03
2018-07-15T13:27:16.804Z,1.43
2018-07-15T13:29:45.458Z,1.60
2018-07-15T13:32:14.023Z,1.73
2018-07-15T13:34:42.993Z,1.57
2018-07-15T13:37:11.461Z,1.40
2018-07-15T13:39:40.081Z,1.67
2018-07-15T13:42:09.032Z,6.20
2018-07-15T13:44:37.724Z,2.63
2018-07-15T13:47:06.253Z,4.33
2018-07-15T13:49:34.819Z,1.73
2018-07-15T13:52:03.403Z,1.63
2018-07-15T13:54:32.562Z,1.50
2018-07-15T13:57:01.082Z,1.83
2018-07-15T13:59:29.587Z,1.80
2018-07-15T14:01:58.123Z,1.60
2018-07-15T14:04:26.721Z,1.87
2018-07-15T14:06:55.271Z,1.77
2018-07-15T14:09:23.867Z,1.73
2018-07-15T14:11:52.396Z,1.70
2018-07-15T14:14:20.949Z,1.30
2018-07-15T14:16:49.480Z,1.60
2018-07-15T14:19:17.977Z,1.80
2018-07-15T14:21:46.521Z,1.53
2018-07-15T14:24:15.068Z,1.53
2018-07-15T14:26:43.643Z,1.80
2018-07-15T14:29:12.259Z,1.53
2018-07-15T14:31:40.821Z,1.83
2018-07-15T14:34:09.440Z,1.43
2018-07-15T14:36:38.016Z,1.60
2018-07-15T14:39:07.218Z,1.60
2018-07-15T14:41:35.852Z,1.53
2018-07-15T14:44:04.428Z,1.60
2018-07-15T14:46:33.001Z,1.50
2018-07-15T14:49:01.513Z,1.40
2018-07-15T14:51:30.354Z,1.40
2018-07-15T14:53:58.833Z,1.43
2018-07-15T14:56:27.541Z,1.30
2018-07-15T14:58:56.251Z,1.50
2018-07-15T15:01:24.856Z,1.70
2018-07-15T15:03:53.071Z,1.37
2018-07-15T15:06:21.566Z,1.17
2018-07-15T15:08:50.693Z,1.40
2018-07-15T15:11:19.324Z,1.73
2018-07-15T15:13:48.331Z,1.13
2018-07-15T15:16:17.083Z,1.40
2018-07-15T15:18:45.811Z,1.27
2018-07-15T15:21:14.301Z,1.43
2018-07-15T15:23:43.115Z,1.43
2018-07-15T15:26:11.281Z,1.10
2018-07-15T15:28:40.044Z,1.00
2018-07-15T15:31:08.956Z,1.30
2018-07-15T15:33:37.580Z,1.00
2018-07-15T15:36:06.449Z,2.33
2018-07-15T15:38:35.346Z,1.70
2018-07-15T15:41:03.887Z,1.10
2018-07-15T15:43:32.370Z,1.33
2018-07-15T15:46:00.969Z,1.20
2018-07-15T15:48:29.485Z,1.30
2018-07-15T15:50:58.081Z,1.30
2018-07-15T15:53:26.672Z,1.10
2018-07-15T15:55:55.214Z,1.20
2018-07-15T15:58:23.814Z,1.10
2018-07-15T16:00:52.266Z,1.23
2018-07-15T16:03:20.465Z,1.47
2018-07-15T16:05:49.041Z,1.57
2018-07-15T16:08:17.619Z,3.13
2018-07-15T16:10:46.264Z,1.37
2018-07-15T16:13:14.985Z,1.20
2018-07-15T16:15:43.639Z,1.70
2018-07-15T16:18:12.325Z,1.27
2018-07-15T16:20:40.856Z,1.77
2018-07-15T16:23:09.859Z,2.60
2018-07-15T16:25:38.390Z,2.73
2018-07-15T16:28:07.084Z,1.70
2018-07-15T16:30:35.564Z,1.20
2018-07-15T16:33:04.616Z,1.10
2018-07-15T16:35:33.102Z,1.17
2018-07-15T16:38:01.682Z,1.10
2018-07-15T16:40:30.376Z,1.20
2018-07-15T16:42:59.362Z,1.30
2018-07-15T16:45:28.052Z,1.00
2018-07-15T16:47:56.573Z,3.10
2018-07-15T16:50:25.094Z,1.73
2018-07-15T16:52:53.843Z,1.73
2018-07-15T16:55:22.352Z,2.60
2018-07-15T16:57:50.852Z,2.27
2018-07-15T17:00:19.545Z,3.50
2018-07-15T17:02:48.028Z,1.20
2018-07-15T17:05:16.643Z,3.17
2018-07-15T17:07:45.182Z,2.50
2018-07-15T17:10:13.841Z,1.50
2018-07-15T17:12:42.284Z,2.40
2018-07-15T17:15:10.965Z,2.60
2018-07-15T17:17:39.754Z,3.47
2018-07-15T17:20:08.317Z,1.00
2018-07-15T17:22:36.605Z,2.10
2018-07-15T17:25:05.856Z,2.63
2018-07-15T17:27:34.484Z,1.30
2018-07-15T17:30:03.077Z,1.00
2018-07-15T17:32:31.660Z,1.17
2018-07-15T17:35:00.143Z,0.90
2018-07-15T17:37:28.643Z,1.00
2018-07-15T17:39:57.150Z,0.97
2018-07-15T17:42:25.645Z,0.67
2018-07-15T17:44:53.898Z,0.93
2018-07-15T17:47:22.591Z,1.00
2018-07-15T17:49:51.171Z,1.10
2018-07-15T17:52:19.685Z,0.80
2018-07-15T17:54:48.421Z,0.70
2018-07-15T17:57:16.945Z,0.77
2018-07-15T17:59:45.418Z,0.73
2018-07-15T18:02:14.307Z,0.70
2018-07-15T18:04:43.114Z,0.80
2018-07-15T18:07:11.393Z,0.80
2018-07-15T18:09:40.474Z,0.90
2018-07-15T18:12:09.405Z,0.80
2018-07-15T18:14:38.158Z,0.97
2018-07-15T18:17:06.791Z,1.77
2018-07-15T18:19:35.586Z,0.90
2018-07-15T18:22:04.267Z,0.80
2018-07-15T18:24:32.943Z,0.80
2018-07-15T18:27:01.533Z,0.90
2018-07-15T18:29:30.379Z,0.67
2018-07-15T18:31:59.144Z,0.83
2018-07-15T18:34:28.113Z,1.00
2018-07-15T18:36:57.833Z,0.80
2018-07-15T18:39:27.062Z,1.23
2018-07-15T18:41:55.770Z,0.83
2018-07-15T18:44:24.325Z,1.00
2018-07-15T18:46:52.871Z,0.90
2018-07-15T18:49:21.697Z,0.90
2018-07-15T18:51:50.628Z,0.87
2018-07-15T18:54:19.187Z,1.00
2018-07-15T18:56:47.818Z,0.60
2018-07-15T18:59:16.545Z,0.93
2018-07-15T19:01:45.126Z,1.00
2018-07-15T19:04:13.758Z,0.70
2018-07-15T19:06:42.313Z,0.90
2018-07-15T19:09:11.075Z,1.00
2018-07-15T19:11:39.524Z,0.80
2018-07-15T19:14:08.049Z,0.90
2018-07-15T19:16:36.736Z,0.90
2018-07-15T19:19:05.559Z,1.00
2018-07-15T19:21:33.941Z,0.83
2018-07-15T19:24:02.120Z,0.80
2018-07-15T19:26:30.732Z,0.93
2018-07-15T19:28:59.391Z,0.70
2018-07-15T19:31:27.771Z,0.87
2018-07-15T19:33:58.020Z,0.80
2018-07-15T19:36:26.943Z,0.87
2018-07-15T19:38:55.529Z,0.90
2018-07-15T19:41:24.034Z,1.07
2018-07-15T19:43:52.499Z,0.87
2018-07-15T19:46:20.947Z,1.10
2018-07-15T19:48:49.770Z,0.90
2018-07-15T19:51:17.904Z,1.17
2018-07-15T19:53:46.360Z,0.67
2018-07-15T19:56:14.940Z,1.30
2018-07-15T19:58:43.380Z,1.00
2018-07-15T20:01:12.178Z,1.10
2018-07-15T20:03:40.670Z,0.90
2018-07-15T20:06:09.518Z,1.17
2018-07-15T20:08:38.031Z,1.00
2018-07-15T20:11:06.605Z,0.83
2018-07-15T20:13:34.772Z,0.93
2018-07-15T20:16:03.482Z,1.00
2018-07-15T20:18:32.062Z,1.20
2018-07-15T20:21:00.689Z,0.93
2018-07-15T20:23:29.265Z,1.10
2018-07-15T20:25:57.830Z,1.20
2018-07-15T20:28:26.314Z,1.10
2018-07-15T20:30:54.792Z,1.40
2018-07-15T20:33:29.721Z,1.23
2018-07-15T20:35:58.471Z,1.30
2018-07-15T20:38:26.960Z,1.30
2018-07-15T20:40:55.436Z,0.87
2018-07-15T20:43:24.064Z,1.10
2018-07-15T20:45:52.544Z,1.10
2018-07-15T20:48:21.149Z,0.83
2018-07-15T20:50:49.718Z,1.10
2018-07-15T20:53:18.214Z,1.00
2018-07-15T20:55:46.766Z,1.20
2018-07-15T20:58:15.473Z,0.90
2018-07-15T21:00:44.050Z,1.00
2018-07-15T21:03:12.625Z,0.80
2018-07-15T21:05:41.173Z,1.20
2018-07-15T21:08:09.658Z,1.50
2018-07-15T21:10:38.260Z,0.80
2018-07-15T21:13:06.806Z,1.10
2018-07-15T21:15:35.475Z,1.30
2018-07-15T21:18:04.094Z,1.37
2018-07-15T21:20:32.695Z,1.00
2018-07-15T21:23:01.316Z,0.93
2018-07-15T21:25:29.857Z,1.30
2018-07-15T21:27:58.460Z,1.40
2018-07-15T21:30:26.914Z,0.90
2018-07-15T21:32:55.755Z,1.40
2018-07-15T21:35:24.306Z,1.30
2018-07-15T21:37:52.966Z,1.40
2018-07-15T21:40:21.802Z,1.20
2018-07-15T21:42:50.277Z,1.30
2018-07-15T21:45:19.606Z,1.50
2018-07-15T21:47:48.156Z,1.10
2018-07-15T21:50:16.683Z,1.87
2018-07-15T21:52:45.237Z,1.50
2018-07-15T21:55:13.725Z,1.50
2018-07-15T21:57:42.281Z,1.20
2018-07-15T22:00:10.856Z,1.20
2018-07-15T22:02:39.343Z,1.20
2018-07-15T22:05:07.825Z,1.60
2018-07-15T22:07:47.545Z,1.40
2018-07-15T22:10:39.363Z,1.30
2018-07-15T22:13:07.875Z,1.40
2018-07-15T22:15:36.384Z,1.70
2018-07-15T22:18:04.842Z,1.10
2018-07-15T22:20:33.269Z,1.30
2018-07-15T22:23:01.730Z,1.50
2018-07-15T22:25:31.085Z,1.57
2018-07-15T22:27:59.647Z,1.43
2018-07-15T22:30:28.324Z,1.60
2018-07-15T22:32:56.837Z,1.47
2018-07-15T22:35:25.518Z,1.70
2018-07-15T22:37:54.093Z,1.30
2018-07-15T22:40:22.631Z,1.67
2018-07-15T22:42:57.877Z,1.53
2018-07-15T22:45:26.502Z,1.93
2018-07-15T22:47:54.985Z,1.83
2018-07-15T22:50:23.501Z,1.30
2018-07-15T22:52:52.012Z,1.40
2018-07-15T22:55:20.500Z,1.60
2018-07-15T22:57:49.088Z,1.43
2018-07-15T23:00:17.694Z,1.30
2018-07-15T23:02:46.151Z,1.63
2018-07-15T23:06:07.621Z,1.30
2018-07-15T23:08:36.109Z,1.60
2018-07-15T23:11:05.048Z,1.80
2018-07-15T23:13:33.613Z,1.30
2018-07-15T23:16:03.004Z,1.43
2018-07-15T23:18:31.543Z,1.40
2018-07-15T23:21:06.696Z,1.40
2018-07-15T23:23:35.392Z,1.90
2018-07-15T23:26:04.033Z,1.60
2018-07-15T23:28:32.546Z,1.30
2018-07-15T23:31:01.057Z,1.30
2018-07-15T23:33:29.812Z,1.47
2018-07-15T23:35:58.244Z,1.30
2018-07-15T23:38:28.463Z,1.20
2018-07-15T23:40:58.579Z,1.40
2018-07-15T23:43:27.408Z,1.57
2018-07-15T23:45:56.663Z,1.53
2018-07-15T23:48:26.224Z,1.27
2018-07-15T23:50:55.175Z,1.30
2018-07-15T23:53:24.365Z,1.77
2018-07-15T23:55:53.820Z,1.70
2018-07-15T23:58:23.865Z,1.53
